Dzizak, Uzbekistan
Current Conditions -  °F | °C
As of 4:00 AM on Thursday 23 Oct 2014 (Local Time) from UTSS Reporting Station
Sand / Dust Storm Sand / Dust Storm  
Wind Chill: 59°   Ceiling: 6300
Heat Index: 59°   Visibility: 3mi
Dew Point: 48°   Wind: 18mph
Humidity: 67%   Direction: 270°W
Pressure: 30.03"   Gusts: NA
Location:  40.12°N, 67.83°E
Report Text: UTSS 222300Z 27008MPS 5000 DU OVC063CB 15/09 Q1017 R88/CLRD70NOSIG
Loading
Personal Weather Stations






























Interactive Weather Map
Tropical Storm Tracking
New forecast layout! Learn more

10-Day Weather Forecast

Advertisements
Track Severe Weather on mobile